createdAt,value
2022-09-04T00:00:14.895Z,17.50
2022-09-04T00:03:15.780Z,17.50
2022-09-04T00:05:52.237Z,17.40
2022-09-04T00:08:22.796Z,17.40
2022-09-04T00:11:15.842Z,17.40
2022-09-04T00:13:45.928Z,17.40
2022-09-04T00:24:29.387Z,17.40
2022-09-04T00:27:10.954Z,17.40
2022-09-04T00:30:02.944Z,17.50
2022-09-04T00:32:50.496Z,17.20
2022-09-04T00:35:21.184Z,17.30
2022-09-04T00:37:59.213Z,17.30
2022-09-04T00:43:37.377Z,17.20
2022-09-04T00:46:43.327Z,17.20
2022-09-04T00:49:23.614Z,17.20
2022-09-04T00:52:36.629Z,17.20
2022-09-04T00:55:35.540Z,17.20
2022-09-04T00:58:28.914Z,17.20
2022-09-04T01:01:00.085Z,17.10
2022-09-04T01:03:37.296Z,17.10
2022-09-04T01:06:35.837Z,17.10
2022-09-04T01:09:15.963Z,17.10
2022-09-04T01:12:13.902Z,17.10
2022-09-04T01:15:04.112Z,17.10
2022-09-04T01:18:03.166Z,17.00
2022-09-04T01:20:40.038Z,17.10
2022-09-04T01:23:30.808Z,17.00
2022-09-04T01:26:05.002Z,17.00
2022-09-04T01:28:59.268Z,17.10
2022-09-04T01:31:53.024Z,17.00
2022-09-04T01:34:35.866Z,17.10
2022-09-04T01:37:33.763Z,17.00
2022-09-04T01:40:23.946Z,17.00
2022-09-04T01:43:13.575Z,17.00
2022-09-04T01:46:06.509Z,17.10
2022-09-04T01:48:39.691Z,17.00
2022-09-04T01:51:27.881Z,17.00
2022-09-04T01:54:31.390Z,17.10
2022-09-04T01:57:17.604Z,17.00
2022-09-04T02:00:01.959Z,17.00
2022-09-04T02:03:10.193Z,17.00
2022-09-04T02:05:37.792Z,17.00
2022-09-04T02:08:33.506Z,17.00
2022-09-04T02:11:13.551Z,17.00
2022-09-04T02:14:40.766Z,16.90
2022-09-04T02:17:15.122Z,17.00
2022-09-04T02:19:54.986Z,17.00
2022-09-04T02:22:42.598Z,16.90
2022-09-04T02:25:21.504Z,17.00
2022-09-04T02:28:19.323Z,16.90
2022-09-04T02:31:15.273Z,17.00
2022-09-04T02:34:03.332Z,17.80
2022-09-04T02:36:41.379Z,17.00
2022-09-04T02:39:56.554Z,17.00
2022-09-04T02:42:43.497Z,17.00
2022-09-04T02:45:23.434Z,16.90
2022-09-04T02:48:06.979Z,17.00
2022-09-04T02:50:53.934Z,17.00
2022-09-04T02:53:56.169Z,17.00
2022-09-04T02:57:03.682Z,16.90
2022-09-04T02:59:56.531Z,17.00
2022-09-04T03:02:28.858Z,16.90
2022-09-04T03:05:04.251Z,16.90
2022-09-04T03:07:36.628Z,16.90
2022-09-04T03:10:15.490Z,16.80
2022-09-04T03:12:52.026Z,16.90
2022-09-04T03:15:42.002Z,16.80
2022-09-04T03:18:26.360Z,16.80
2022-09-04T03:21:01.917Z,16.70
2022-09-04T03:23:42.538Z,16.70
2022-09-04T03:26:14.323Z,16.60
2022-09-04T03:28:49.160Z,16.60
2022-09-04T03:31:33.387Z,16.60
2022-09-04T03:34:20.577Z,16.50
2022-09-04T03:37:04.019Z,16.60
2022-09-04T03:40:04.203Z,16.60
2022-09-04T03:42:55.006Z,16.60
2022-09-04T03:45:31.862Z,16.50
2022-09-04T03:48:31.368Z,15.20
2022-09-04T03:51:25.952Z,16.70
2022-09-04T03:54:26.142Z,16.70
2022-09-04T03:57:31.968Z,16.80
2022-09-04T04:00:18.915Z,16.90
2022-09-04T04:03:10.931Z,16.90
2022-09-04T04:05:48.399Z,17.00
2022-09-04T04:08:42.864Z,17.00
2022-09-04T04:11:46.648Z,17.00
2022-09-04T04:14:38.781Z,17.00
2022-09-04T04:17:35.538Z,17.00
2022-09-04T04:20:22.481Z,17.10
2022-09-04T04:23:03.313Z,17.00
2022-09-04T04:26:04.381Z,17.10
2022-09-04T04:29:03.436Z,17.20
2022-09-04T04:31:35.266Z,17.20
2022-09-04T04:34:28.491Z,17.30
2022-09-04T04:37:09.442Z,17.30
2022-09-04T04:40:01.715Z,17.40
2022-09-04T04:42:40.240Z,17.40
2022-09-04T04:45:36.926Z,17.50
2022-09-04T04:48:29.606Z,17.50
2022-09-04T04:51:18.817Z,17.50
2022-09-04T04:53:58.158Z,17.60
2022-09-04T04:56:52.198Z,17.60
2022-09-04T04:59:46.499Z,17.60
2022-09-04T05:02:24.883Z,17.60
2022-09-04T05:05:05.935Z,17.50
2022-09-04T05:08:08.634Z,17.60
2022-09-04T05:11:05.122Z,17.60
2022-09-04T05:13:35.778Z,17.60
2022-09-04T05:16:14.053Z,17.60
2022-09-04T05:18:49.853Z,17.60
2022-09-04T05:21:43.481Z,17.70
2022-09-04T05:24:45.698Z,17.70
2022-09-04T05:27:23.711Z,17.70
2022-09-04T05:30:12.995Z,17.70
2022-09-04T05:33:12.069Z,17.70
2022-09-04T05:35:59.779Z,17.70
2022-09-04T05:38:42.583Z,17.70
2022-09-04T05:41:43.680Z,17.70
2022-09-04T05:44:39.957Z,17.70
2022-09-04T05:47:25.578Z,17.70
2022-09-04T05:50:21.922Z,17.70
2022-09-04T05:53:03.262Z,17.80
2022-09-04T05:55:37.137Z,17.70
2022-09-04T05:58:11.389Z,17.70
2022-09-04T06:01:05.587Z,17.70
2022-09-04T06:04:22.661Z,17.80
2022-09-04T06:07:10.103Z,17.80
2022-09-04T06:09:56.800Z,17.80
2022-09-04T06:12:40.001Z,17.80
2022-09-04T06:15:28.598Z,17.80
2022-09-04T06:18:15.850Z,17.90
2022-09-04T06:21:10.671Z,17.80
2022-09-04T06:23:56.831Z,18.00
2022-09-04T06:27:06.165Z,18.10
2022-09-04T06:29:53.498Z,18.20
2022-09-04T06:32:21.136Z,18.20
2022-09-04T06:35:17.510Z,18.30
2022-09-04T06:38:02.906Z,18.40
2022-09-04T06:41:00.212Z,18.40
2022-09-04T06:43:48.789Z,18.50
2022-09-04T06:46:33.959Z,18.50
2022-09-04T06:49:20.644Z,18.60
2022-09-04T06:52:09.610Z,18.70
2022-09-04T06:54:44.357Z,18.70
2022-09-04T06:57:36.059Z,18.70
2022-09-04T07:00:09.756Z,18.90
2022-09-04T07:02:56.740Z,18.80
2022-09-04T07:06:04.159Z,18.90
2022-09-04T07:09:06.147Z,19.00
2022-09-04T07:12:01.632Z,19.10
2022-09-04T07:14:45.472Z,19.10
2022-09-04T07:17:34.415Z,19.20
2022-09-04T07:20:17.481Z,19.20
2022-09-04T07:23:10.643Z,19.30
2022-09-04T07:26:01.206Z,19.30
2022-09-04T07:29:04.453Z,19.40
2022-09-04T07:31:58.865Z,19.40
2022-09-04T07:34:33.102Z,19.50
2022-09-04T07:37:14.220Z,19.50
2022-09-04T07:40:10.263Z,19.50
2022-09-04T07:42:50.109Z,19.50
2022-09-04T07:45:48.273Z,19.50
2022-09-04T07:48:28.986Z,19.50
2022-09-04T07:51:16.721Z,19.50
2022-09-04T07:54:07.736Z,19.60
2022-09-04T07:56:49.817Z,19.60
2022-09-04T07:59:29.338Z,19.70
2022-09-04T08:02:12.297Z,19.70
2022-09-04T08:05:13.819Z,19.80
2022-09-04T08:07:41.357Z,19.80
2022-09-04T08:10:43.306Z,19.90
2022-09-04T08:13:33.852Z,20.00
2022-09-04T08:16:08.731Z,20.00
2022-09-04T08:18:50.517Z,20.10
2022-09-04T08:21:28.887Z,20.20
2022-09-04T08:24:25.378Z,20.20
2022-09-04T08:27:03.059Z,20.40
2022-09-04T08:29:58.211Z,20.40
2022-09-04T08:32:53.089Z,20.50
2022-09-04T08:36:07.525Z,20.50
2022-09-04T08:38:58.047Z,20.60
2022-09-04T08:41:48.440Z,20.70
2022-09-04T08:44:44.981Z,20.80
2022-09-04T08:47:51.620Z,20.90
2022-09-04T08:50:58.231Z,21.00
2022-09-04T08:54:03.825Z,21.10
2022-09-04T08:56:50.316Z,21.10
2022-09-04T08:59:57.535Z,21.20
2022-09-04T09:02:31.072Z,21.20
2022-09-04T09:05:42.931Z,21.30
2022-09-04T09:08:35.973Z,21.40
2022-09-04T09:11:41.907Z,21.50
2022-09-04T09:14:15.816Z,21.70
2022-09-04T09:16:52.489Z,21.70
2022-09-04T09:19:33.944Z,21.80
2022-09-04T09:22:10.404Z,21.80
2022-09-04T09:25:07.165Z,22.00
2022-09-04T09:28:13.602Z,22.00
2022-09-04T09:31:05.961Z,22.00
2022-09-04T09:33:58.138Z,22.00
2022-09-04T09:37:02.739Z,21.90
2022-09-04T09:39:46.274Z,21.80
2022-09-04T09:42:40.022Z,21.80
2022-09-04T09:45:35.971Z,21.70
2022-09-04T09:48:48.151Z,21.80
2022-09-04T09:51:40.571Z,21.80
2022-09-04T09:54:38.475Z,21.80
2022-09-04T09:57:33.901Z,21.80
2022-09-04T10:00:17.431Z,21.80
2022-09-04T10:03:09.930Z,21.90
2022-09-04T10:06:11.730Z,22.00
2022-09-04T10:09:04.921Z,22.00
2022-09-04T10:12:24.158Z,22.10
2022-09-04T10:15:39.482Z,22.30
2022-09-04T10:18:45.863Z,22.30
2022-09-04T10:21:35.041Z,22.30
2022-09-04T10:24:39.627Z,22.30
2022-09-04T10:27:26.065Z,22.20
2022-09-04T10:30:02.785Z,22.20
2022-09-04T10:32:59.833Z,22.20
2022-09-04T10:35:46.953Z,22.20
2022-09-04T10:38:35.876Z,22.20
2022-09-04T10:41:36.382Z,22.20
2022-09-04T10:44:18.022Z,22.30
2022-09-04T10:46:58.415Z,22.30
2022-09-04T10:52:37.719Z,22.40
2022-09-04T10:55:26.569Z,22.40
2022-09-04T10:58:15.091Z,22.50
2022-09-04T11:01:13.521Z,22.50
2022-09-04T11:03:54.073Z,22.50
2022-09-04T11:06:53.499Z,22.50
2022-09-04T11:09:52.093Z,22.60
2022-09-04T11:12:22.660Z,22.70
2022-09-04T11:14:59.531Z,22.80
2022-09-04T11:17:41.540Z,22.80
2022-09-04T11:20:31.017Z,22.90
2022-09-04T11:23:34.210Z,22.90
2022-09-04T11:26:47.803Z,23.10
2022-09-04T11:29:41.943Z,23.10
2022-09-04T11:32:34.533Z,23.20
2022-09-04T11:35:29.917Z,23.20
2022-09-04T11:38:24.387Z,23.30
2022-09-04T11:41:36.517Z,23.20
2022-09-04T11:44:38.168Z,23.20
2022-09-04T11:47:29.511Z,23.40
2022-09-04T11:50:30.393Z,23.40
2022-09-04T11:53:20.900Z,23.40
2022-09-04T11:56:00.660Z,23.50
2022-09-04T11:58:47.504Z,23.60
2022-09-04T12:01:35.138Z,23.70
2022-09-04T12:04:28.627Z,23.80
2022-09-04T12:07:16.308Z,23.80
2022-09-04T12:10:06.568Z,23.90
2022-09-04T12:12:43.605Z,24.00
2022-09-04T12:15:35.064Z,24.00
2022-09-04T12:18:44.897Z,24.00
2022-09-04T12:21:54.170Z,24.00
2022-09-04T12:24:54.861Z,24.00
2022-09-04T12:27:56.177Z,23.80
2022-09-04T12:30:32.978Z,23.70
2022-09-04T12:33:22.239Z,23.70
2022-09-04T12:36:27.227Z,23.80
2022-09-04T12:39:06.724Z,23.90
2022-09-04T12:42:06.662Z,24.00
2022-09-04T12:44:47.575Z,24.20
2022-09-04T12:47:18.198Z,24.30
2022-09-04T12:50:09.506Z,24.30
2022-09-04T12:53:05.318Z,24.30
2022-09-04T12:55:52.888Z,24.20
2022-09-04T12:58:43.078Z,24.20
2022-09-04T13:01:23.669Z,24.30
2022-09-04T13:04:10.226Z,24.30
2022-09-04T13:07:07.105Z,24.30
2022-09-04T13:09:45.600Z,24.30
2022-09-04T13:12:44.190Z,24.30
2022-09-04T13:15:30.086Z,24.30
2022-09-04T13:18:12.524Z,24.40
2022-09-04T13:20:55.104Z,24.50
2022-09-04T13:23:26.838Z,24.50
2022-09-04T13:26:20.690Z,24.50
2022-09-04T13:29:26.541Z,24.70
2022-09-04T13:32:13.975Z,24.80
2022-09-04T13:35:08.955Z,24.90
2022-09-04T13:38:15.401Z,25.00
2022-09-04T13:41:02.855Z,25.10
2022-09-04T13:44:05.687Z,25.30
2022-09-04T13:46:41.073Z,25.40
2022-09-04T13:49:20.434Z,25.50
2022-09-04T13:52:04.412Z,25.30
2022-09-04T13:54:44.951Z,25.20
2022-09-04T13:57:27.921Z,25.00
2022-09-04T14:00:02.871Z,24.50
2022-09-04T14:02:34.600Z,24.90
2022-09-04T14:05:08.965Z,25.00
2022-09-04T14:07:45.256Z,25.00
2022-09-04T14:10:20.954Z,25.10
2022-09-04T14:13:22.299Z,25.00
2022-09-04T14:16:06.894Z,25.00
2022-09-04T14:19:15.709Z,25.20
2022-09-04T14:21:44.615Z,25.40
2022-09-04T14:24:42.145Z,25.60
2022-09-04T14:27:26.617Z,26.30
2022-09-04T14:30:08.644Z,26.70
2022-09-04T14:33:05.021Z,27.70
2022-09-04T14:35:47.013Z,28.20
2022-09-04T14:38:29.488Z,28.20
2022-09-04T14:41:39.375Z,27.90
2022-09-04T14:44:39.642Z,27.70
2022-09-04T14:47:16.608Z,27.60
2022-09-04T14:49:50.938Z,27.60
2022-09-04T14:52:24.306Z,27.90
2022-09-04T14:55:01.274Z,28.30
2022-09-04T14:57:51.305Z,28.40
2022-09-04T15:00:20.818Z,28.20
2022-09-04T15:03:02.890Z,27.90
2022-09-04T15:05:36.716Z,27.50
2022-09-04T15:08:07.866Z,27.20
2022-09-04T15:10:50.742Z,26.80
2022-09-04T15:13:28.960Z,26.50
2022-09-04T15:16:23.047Z,26.30
2022-09-04T15:19:19.392Z,26.20
2022-09-04T15:21:52.917Z,26.00
2022-09-04T15:24:33.768Z,25.80
2022-09-04T15:27:23.643Z,25.60
2022-09-04T15:29:54.821Z,25.60
2022-09-04T15:32:36.918Z,25.60
2022-09-04T15:35:13.841Z,25.40
2022-09-04T15:37:48.425Z,25.20
2022-09-04T15:40:32.107Z,25.10
2022-09-04T15:43:10.048Z,25.10
2022-09-04T15:45:53.607Z,24.90
2022-09-04T15:48:55.469Z,24.80
2022-09-04T15:51:47.232Z,24.60
2022-09-04T15:54:27.080Z,24.50
2022-09-04T15:57:36.229Z,24.50
2022-09-04T16:00:15.894Z,24.40
2022-09-04T16:03:23.875Z,24.30
2022-09-04T16:05:59.050Z,24.20
2022-09-04T16:08:37.302Z,24.10
2022-09-04T16:11:33.572Z,24.00
2022-09-04T16:14:44.661Z,24.00
2022-09-04T16:17:20.328Z,24.00
2022-09-04T16:19:58.590Z,24.00
2022-09-04T16:22:28.965Z,24.00
2022-09-04T16:25:12.908Z,24.00
2022-09-04T16:28:03.786Z,23.80
2022-09-04T16:30:42.542Z,23.80
2022-09-04T16:33:28.729Z,23.70
2022-09-04T16:36:06.956Z,23.70
2022-09-04T16:38:48.155Z,23.60
2022-09-04T16:41:38.939Z,23.60
2022-09-04T16:44:26.139Z,23.50
2022-09-04T16:47:17.867Z,23.50
2022-09-04T16:49:57.568Z,23.60
2022-09-04T16:52:32.007Z,23.50
2022-09-04T16:55:10.517Z,23.50
2022-09-04T16:58:07.274Z,23.50
2022-09-04T17:01:14.243Z,23.60
2022-09-04T17:04:15.176Z,23.60
2022-09-04T17:07:09.199Z,24.70
2022-09-04T17:09:46.922Z,23.60
2022-09-04T17:12:40.510Z,23.60
2022-09-04T17:15:31.349Z,23.60
2022-09-04T17:18:05.365Z,23.60
2022-09-04T17:23:19.366Z,23.50
2022-09-04T17:28:56.809Z,23.40
2022-09-04T17:29:07.542Z,23.20
2022-09-04T17:29:42.865Z,23.10
2022-09-04T17:32:51.500Z,23.10
2022-09-04T17:40:35.958Z,23.00
2022-09-04T17:40:55.439Z,23.00
2022-09-04T17:42:05.168Z,22.90
2022-09-04T17:45:01.796Z,22.90
2022-09-04T17:47:43.205Z,22.80
2022-09-04T17:50:18.141Z,22.70
2022-09-04T17:53:04.736Z,22.60
2022-09-04T17:55:39.099Z,22.60
2022-09-04T17:58:29.298Z,22.50
2022-09-04T18:01:16.932Z,22.40
2022-09-04T18:04:27.066Z,22.30
2022-09-04T18:07:28.955Z,22.20
2022-09-04T18:10:11.711Z,22.10
2022-09-04T18:13:00.966Z,22.10
2022-09-04T18:15:35.573Z,22.00
2022-09-04T18:18:17.205Z,21.90
2022-09-04T18:20:51.647Z,21.90
2022-09-04T18:23:50.945Z,21.80
2022-09-04T18:26:35.752Z,21.70
2022-09-04T18:33:10.483Z,21.70
2022-09-04T18:37:12.713Z,21.70
2022-09-04T18:37:21.161Z,21.70
2022-09-04T18:39:08.720Z,21.60
2022-09-04T18:50:32.965Z,21.50
2022-09-04T18:50:39.225Z,21.50
2022-09-04T18:50:40.105Z,21.60
2022-09-04T18:51:20.570Z,21.50
2022-09-04T18:54:18.984Z,21.40
2022-09-04T18:56:53.008Z,21.40
2022-09-04T18:59:35.941Z,21.30
2022-09-04T19:02:24.318Z,21.30
2022-09-04T19:04:58.472Z,21.30
2022-09-04T19:07:47.963Z,21.20
2022-09-04T19:10:43.304Z,21.20
2022-09-04T19:13:31.997Z,21.20
2022-09-04T19:16:13.200Z,21.10
2022-09-04T19:19:09.093Z,21.10
2022-09-04T19:22:11.302Z,21.10
2022-09-04T19:24:52.835Z,21.10
2022-09-04T19:27:41.185Z,21.00
2022-09-04T19:30:23.552Z,21.00
2022-09-04T19:33:06.219Z,20.90
2022-09-04T19:36:08.131Z,20.90
2022-09-04T19:43:55.776Z,20.90
2022-09-04T19:46:04.421Z,20.80
2022-09-04T19:46:19.914Z,20.70
2022-09-04T19:48:04.921Z,20.70
2022-09-04T19:53:22.066Z,20.60
2022-09-04T19:53:40.420Z,20.50
2022-09-04T19:56:38.076Z,20.50
2022-09-04T19:59:34.810Z,20.40
2022-09-04T20:02:32.766Z,20.30
2022-09-04T20:05:04.071Z,20.30
2022-09-04T20:08:03.958Z,20.30
2022-09-04T20:10:51.723Z,21.30
2022-09-04T20:13:47.685Z,20.20
2022-09-04T20:16:21.500Z,20.10
2022-09-04T20:19:11.114Z,20.10
2022-09-04T20:21:45.605Z,20.00
2022-09-04T20:24:25.023Z,20.00
2022-09-04T20:26:56.709Z,20.00
2022-09-04T20:29:37.453Z,20.00
2022-09-04T20:32:11.127Z,19.90
2022-09-04T20:35:12.999Z,19.90
2022-09-04T20:37:53.500Z,19.90
2022-09-04T20:40:37.341Z,19.90
2022-09-04T20:43:31.870Z,19.80
2022-09-04T20:49:16.659Z,19.80
2022-09-04T20:52:57.019Z,19.70
2022-09-04T20:53:10.529Z,19.60
2022-09-04T20:57:36.022Z,19.60
2022-09-04T21:03:08.357Z,19.50
2022-09-04T21:03:19.147Z,19.50
2022-09-04T21:05:37.568Z,19.40
2022-09-04T21:08:33.383Z,19.40
2022-09-04T21:11:39.369Z,19.30
2022-09-04T21:14:18.893Z,19.30
2022-09-04T21:16:49.536Z,19.20
2022-09-04T21:19:34.800Z,19.20
2022-09-04T21:22:28.960Z,19.20
2022-09-04T21:25:22.189Z,19.10
2022-09-04T21:28:24.113Z,19.10
2022-09-04T21:31:12.925Z,19.00
2022-09-04T21:33:55.732Z,19.00
2022-09-04T21:36:49.486Z,18.90
2022-09-04T21:39:48.004Z,18.90
2022-09-04T21:42:25.834Z,18.90
2022-09-04T21:45:54.860Z,19.20
2022-09-04T21:48:46.675Z,18.90
2022-09-04T21:51:29.867Z,18.90
2022-09-04T21:54:10.274Z,19.00
2022-09-04T22:02:32.339Z,18.90
2022-09-04T22:02:37.501Z,18.90
2022-09-04T22:03:05.209Z,18.90
2022-09-04T22:06:03.983Z,18.90
2022-09-04T22:13:26.767Z,18.90
2022-09-04T22:13:39.301Z,18.90
2022-09-04T22:14:52.612Z,18.90
2022-09-04T22:17:58.312Z,18.80
2022-09-04T22:20:53.162Z,18.80
2022-09-04T22:23:40.573Z,18.80
2022-09-04T22:26:36.158Z,18.60
2022-09-04T22:29:26.670Z,18.60
2022-09-04T22:32:36.036Z,18.60
2022-09-04T22:35:07.794Z,18.60
2022-09-04T22:38:12.550Z,18.60
2022-09-04T22:41:04.522Z,18.60
2022-09-04T22:43:46.734Z,18.60
2022-09-04T22:46:31.677Z,18.50
2022-09-04T22:49:12.903Z,18.50
2022-09-04T22:52:01.976Z,18.50
2022-09-04T22:55:36.582Z,18.40
2022-09-04T22:58:20.671Z,18.40
2022-09-04T23:00:54.162Z,18.40
2022-09-04T23:03:50.938Z,18.30
2022-09-04T23:11:37.264Z,18.30
2022-09-04T23:13:44.145Z,18.30
2022-09-04T23:13:59.987Z,18.20
2022-09-04T23:16:28.703Z,18.20
2022-09-04T23:23:17.008Z,18.20
2022-09-04T23:26:41.496Z,18.20
2022-09-04T23:26:49.394Z,18.20
2022-09-04T23:28:37.718Z,18.20
2022-09-04T23:31:42.481Z,18.30
2022-09-04T23:34:36.364Z,18.30
2022-09-04T23:37:30.795Z,18.30
2022-09-04T23:40:25.862Z,18.40
2022-09-04T23:43:45.958Z,18.40
2022-09-04T23:46:27.200Z,18.40
2022-09-04T23:49:06.548Z,18.40
2022-09-04T23:51:53.619Z,18.50
2022-09-04T23:54:43.095Z,18.50
2022-09-04T23:57:26.562Z,18.50
